<?xml version="1.0"?>
<gpx
 version="1.0"
 creator="BadaTracker - http://www.badatracker.com"
 xmlns:xsi="http://www.w3.org/2001/XMLSchema-instance"
 xmlns="http://www.topografix.com/GPX/1/0"
 xsi:schemaLocation="http://www.topografix.com/GPX/1/0 http://www.topografix.com/GPX/1/0/gpx.xsd">
<time>2012-01-25T11:42:10Z</time>
<bounds minlat="36.508919" minlon="-4.881256" maxlat="36.565063" maxlon="-4.843112"/>
<wpt lat="36.564407" lon="-4.861963">
<time>2012-01-25T07:52:31Z</time>
<ele>0.000000</ele>
<name>KM 0.000 (START)</name>
<sym>STARTPOS</sym>
<desc>[Taken at 01/25/2012 08:52:31]
</desc>
</wpt>
<wpt lat="36.509151" lon="-4.871964">
<time>2012-01-25T11:42:10Z</time>
<ele>65.000000</ele>
<name>KM 16.842 (END)</name>
<sym>ENDPOS</sym>
<desc>[Taken at 01/25/2012 12:42:10]
</desc>
</wpt>
<trk>
<name>TRIP0008</name>
<trkseg>
<trkpt lat="36.564407" lon="-4.861963">
<time>2012-01-25T07:52:31Z</time>
<ele>0.000000</ele>
</trkpt>
<trkpt lat="36.564407" lon="-4.861963">
<time>2012-01-25T07:53:04Z</time>
<ele>0.000000</ele>
</trkpt>
<trkpt lat="36.564407" lon="-4.861963">
<time>2012-01-25T07:53:34Z</time>
<ele>0.000000</ele>
</trkpt>
<trkpt lat="36.564407" lon="-4.861963">
<time>2012-01-25T07:54:06Z</time>
<ele>0.000000</ele>
</trkpt>
<trkpt lat="36.564407" lon="-4.861963">
<time>2012-01-25T07:54:36Z</time>
<ele>0.000000</ele>
</trkpt>
<trkpt lat="36.564407" lon="-4.861963">
<time>2012-01-25T07:55:07Z</time>
<ele>0.000000</ele>
</trkpt>
<trkpt lat="36.564407" lon="-4.861963">
<time>2012-01-25T07:55:38Z</time>
<ele>0.000000</ele>
</trkpt>
<trkpt lat="36.564407" lon="-4.861963">
<time>2012-01-25T07:56:08Z</time>
<ele>0.000000</ele>
</trkpt>
<trkpt lat="36.564407" lon="-4.861963">
<time>2012-01-25T07:56:37Z</time>
<ele>0.000000</ele>
</trkpt>
<trkpt lat="36.564407" lon="-4.861963">
<time>2012-01-25T07:57:07Z</time>
<ele>0.000000</ele>
</trkpt>
<trkpt lat="36.564407" lon="-4.861963">
<time>2012-01-25T07:57:39Z</time>
<ele>0.000000</ele>
</trkpt>
<trkpt lat="36.564407" lon="-4.861963">
<time>2012-01-25T07:58:08Z</time>
<ele>0.000000</ele>
</trkpt>
<trkpt lat="36.564407" lon="-4.861963">
<time>2012-01-25T07:58:39Z</time>
<ele>0.000000</ele>
</trkpt>
<trkpt lat="36.564407" lon="-4.861963">
<time>2012-01-25T07:59:09Z</time>
<ele>0.000000</ele>
</trkpt>
<trkpt lat="36.564407" lon="-4.861963">
<time>2012-01-25T07:59:40Z</time>
<ele>0.000000</ele>
</trkpt>
<trkpt lat="36.564407" lon="-4.861963">
<time>2012-01-25T08:00:10Z</time>
<ele>0.000000</ele>
</trkpt>
<trkpt lat="36.564407" lon="-4.861963">
<time>2012-01-25T08:00:41Z</time>
<ele>0.000000</ele>
</trkpt>
<trkpt lat="36.564407" lon="-4.861963">
<time>2012-01-25T08:01:12Z</time>
<ele>0.000000</ele>
</trkpt>
<trkpt lat="36.564407" lon="-4.861963">
<time>2012-01-25T08:01:42Z</time>
<ele>0.000000</ele>
</trkpt>
<trkpt lat="36.564407" lon="-4.861963">
<time>2012-01-25T08:02:12Z</time>
<ele>0.000000</ele>
</trkpt>
<trkpt lat="36.564407" lon="-4.861963">
<time>2012-01-25T08:02:43Z</time>
<ele>0.000000</ele>
</trkpt>
<trkpt lat="36.564407" lon="-4.861963">
<time>2012-01-25T08:03:14Z</time>
<ele>0.000000</ele>
</trkpt>
<trkpt lat="36.564407" lon="-4.861963">
<time>2012-01-25T08:03:44Z</time>
<ele>0.000000</ele>
</trkpt>
<trkpt lat="36.564407" lon="-4.861963">
<time>2012-01-25T08:04:14Z</time>
<ele>0.000000</ele>
</trkpt>
<trkpt lat="36.564407" lon="-4.861963">
<time>2012-01-25T08:04:44Z</time>
<ele>0.000000</ele>
</trkpt>
<trkpt lat="36.564407" lon="-4.861963">
<time>2012-01-25T08:05:14Z</time>
<ele>0.000000</ele>
</trkpt>
<trkpt lat="36.564407" lon="-4.861963">
<time>2012-01-25T08:05:45Z</time>
<ele>0.000000</ele>
</trkpt>
<trkpt lat="36.564407" lon="-4.861963">
<time>2012-01-25T08:06:15Z</time>
<ele>0.000000</ele>
</trkpt>
<trkpt lat="36.564587" lon="-4.847090">
<time>2012-01-25T09:07:00Z</time>
<ele>304.000000</ele>
</trkpt>
<trkpt lat="36.564635" lon="-4.846296">
<time>2012-01-25T09:07:36Z</time>
<ele>383.000000</ele>
</trkpt>
<trkpt lat="36.564407" lon="-4.861963">
<time>2012-01-25T08:07:56Z</time>
<ele>0.000000</ele>
</trkpt>
<trkpt lat="36.564407" lon="-4.861963">
<time>2012-01-25T08:08:26Z</time>
<ele>0.000000</ele>
</trkpt>
<trkpt lat="36.564407" lon="-4.861963">
<time>2012-01-25T08:08:57Z</time>
<ele>0.000000</ele>
</trkpt>
<trkpt lat="36.563026" lon="-4.846623">
<time>2012-01-25T09:09:42Z</time>
<ele>312.000000</ele>
</trkpt>
<trkpt lat="36.562497" lon="-4.846207">
<time>2012-01-25T09:10:22Z</time>
<ele>416.000000</ele>
</trkpt>
<trkpt lat="36.562484" lon="-4.845702">
<time>2012-01-25T09:11:02Z</time>
<ele>406.000000</ele>
</trkpt>
<trkpt lat="36.562300" lon="-4.845023">
<time>2012-01-25T09:11:42Z</time>
<ele>395.000000</ele>
</trkpt>
<trkpt lat="36.562115" lon="-4.844431">
<time>2012-01-25T09:12:22Z</time>
<ele>392.000000</ele>
</trkpt>
<trkpt lat="36.562405" lon="-4.843941">
<time>2012-01-25T09:13:02Z</time>
<ele>383.000000</ele>
</trkpt>
<trkpt lat="36.562808" lon="-4.843503">
<time>2012-01-25T09:13:41Z</time>
<ele>377.000000</ele>
</trkpt>
<trkpt lat="36.562743" lon="-4.843397">
<time>2012-01-25T09:14:20Z</time>
<ele>377.000000</ele>
</trkpt>
<trkpt lat="36.562580" lon="-4.843113">
<time>2012-01-25T09:15:00Z</time>
<ele>374.000000</ele>
</trkpt>
<trkpt lat="36.562163" lon="-4.843434">
<time>2012-01-25T09:15:40Z</time>
<ele>371.000000</ele>
</trkpt>
<trkpt lat="36.561710" lon="-4.843637">
<time>2012-01-25T09:16:19Z</time>
<ele>370.000000</ele>
</trkpt>
<trkpt lat="36.561548" lon="-4.844226">
<time>2012-01-25T09:16:59Z</time>
<ele>366.000000</ele>
</trkpt>
<trkpt lat="36.561598" lon="-4.844908">
<time>2012-01-25T09:17:39Z</time>
<ele>360.000000</ele>
</trkpt>
<trkpt lat="36.561541" lon="-4.845303">
<time>2012-01-25T09:18:19Z</time>
<ele>356.000000</ele>
</trkpt>
<trkpt lat="36.561511" lon="-4.845134">
<time>2012-01-25T09:18:59Z</time>
<ele>351.000000</ele>
</trkpt>
<trkpt lat="36.561300" lon="-4.844492">
<time>2012-01-25T09:19:40Z</time>
<ele>339.000000</ele>
</trkpt>
<trkpt lat="36.561064" lon="-4.844059">
<time>2012-01-25T09:20:16Z</time>
<ele>326.000000</ele>
</trkpt>
<trkpt lat="36.560817" lon="-4.843529">
<time>2012-01-25T09:20:59Z</time>
<ele>317.000000</ele>
</trkpt>
<trkpt lat="36.560698" lon="-4.843994">
<time>2012-01-25T09:21:41Z</time>
<ele>320.000000</ele>
</trkpt>
<trkpt lat="36.560894" lon="-4.844415">
<time>2012-01-25T09:22:21Z</time>
<ele>319.000000</ele>
</trkpt>
<trkpt lat="36.560869" lon="-4.844996">
<time>2012-01-25T09:23:01Z</time>
<ele>319.000000</ele>
</trkpt>
<trkpt lat="36.560725" lon="-4.846043">
<time>2012-01-25T09:23:41Z</time>
<ele>316.000000</ele>
</trkpt>
<trkpt lat="36.560644" lon="-4.846520">
<time>2012-01-25T09:24:21Z</time>
<ele>315.000000</ele>
</trkpt>
<trkpt lat="36.560684" lon="-4.847178">
<time>2012-01-25T09:25:01Z</time>
<ele>308.000000</ele>
</trkpt>
<trkpt lat="36.560733" lon="-4.847988">
<time>2012-01-25T09:25:41Z</time>
<ele>302.000000</ele>
</trkpt>
<trkpt lat="36.560805" lon="-4.848028">
<time>2012-01-25T09:26:21Z</time>
<ele>302.000000</ele>
</trkpt>
<trkpt lat="36.560810" lon="-4.848007">
<time>2012-01-25T09:26:57Z</time>
<ele>303.000000</ele>
</trkpt>
<trkpt lat="36.560789" lon="-4.848227">
<time>2012-01-25T09:27:37Z</time>
<ele>300.000000</ele>
</trkpt>
<trkpt lat="36.562817" lon="-4.850174">
<time>2012-01-25T09:28:17Z</time>
<ele>299.000000</ele>
</trkpt>
<trkpt lat="36.564109" lon="-4.852272">
<time>2012-01-25T09:28:57Z</time>
<ele>341.000000</ele>
</trkpt>
<trkpt lat="36.564855" lon="-4.853404">
<time>2012-01-25T09:29:37Z</time>
<ele>372.000000</ele>
</trkpt>
<trkpt lat="36.564694" lon="-4.854997">
<time>2012-01-25T09:30:17Z</time>
<ele>381.000000</ele>
</trkpt>
<trkpt lat="36.565064" lon="-4.858527">
<time>2012-01-25T09:30:57Z</time>
<ele>385.000000</ele>
</trkpt>
<trkpt lat="36.564689" lon="-4.858950">
<time>2012-01-25T09:31:37Z</time>
<ele>386.000000</ele>
</trkpt>
<trkpt lat="36.563305" lon="-4.859460">
<time>2012-01-25T09:32:17Z</time>
<ele>386.000000</ele>
</trkpt>
<trkpt lat="36.563643" lon="-4.859707">
<time>2012-01-25T09:32:57Z</time>
<ele>386.000000</ele>
</trkpt>
<trkpt lat="36.563660" lon="-4.859706">
<time>2012-01-25T09:33:37Z</time>
<ele>387.000000</ele>
</trkpt>
<trkpt lat="36.563731" lon="-4.859729">
<time>2012-01-25T09:34:17Z</time>
<ele>387.000000</ele>
</trkpt>
<trkpt lat="36.563666" lon="-4.859680">
<time>2012-01-25T09:34:56Z</time>
<ele>387.000000</ele>
</trkpt>
<trkpt lat="36.563666" lon="-4.859680">
<time>2012-01-25T09:35:36Z</time>
<ele>387.000000</ele>
</trkpt>
<trkpt lat="36.563666" lon="-4.859680">
<time>2012-01-25T09:36:16Z</time>
<ele>387.000000</ele>
</trkpt>
<trkpt lat="36.563666" lon="-4.859680">
<time>2012-01-25T09:36:56Z</time>
<ele>387.000000</ele>
</trkpt>
<trkpt lat="36.563666" lon="-4.859680">
<time>2012-01-25T09:37:36Z</time>
<ele>387.000000</ele>
</trkpt>
<trkpt lat="36.563666" lon="-4.859680">
<time>2012-01-25T09:38:16Z</time>
<ele>387.000000</ele>
</trkpt>
<trkpt lat="36.563666" lon="-4.859680">
<time>2012-01-25T09:38:56Z</time>
<ele>387.000000</ele>
</trkpt>
<trkpt lat="36.563666" lon="-4.859680">
<time>2012-01-25T09:39:36Z</time>
<ele>387.000000</ele>
</trkpt>
<trkpt lat="36.563666" lon="-4.859680">
<time>2012-01-25T09:40:16Z</time>
<ele>387.000000</ele>
</trkpt>
<trkpt lat="36.563666" lon="-4.859680">
<time>2012-01-25T09:40:56Z</time>
<ele>387.000000</ele>
</trkpt>
<trkpt lat="36.563666" lon="-4.859680">
<time>2012-01-25T09:41:36Z</time>
<ele>387.000000</ele>
</trkpt>
<trkpt lat="36.563666" lon="-4.859680">
<time>2012-01-25T09:42:16Z</time>
<ele>387.000000</ele>
</trkpt>
<trkpt lat="36.563666" lon="-4.859680">
<time>2012-01-25T09:42:56Z</time>
<ele>387.000000</ele>
</trkpt>
<trkpt lat="36.563666" lon="-4.859680">
<time>2012-01-25T09:43:36Z</time>
<ele>387.000000</ele>
</trkpt>
<trkpt lat="36.563666" lon="-4.859680">
<time>2012-01-25T09:44:16Z</time>
<ele>387.000000</ele>
</trkpt>
<trkpt lat="36.563666" lon="-4.859680">
<time>2012-01-25T09:44:56Z</time>
<ele>387.000000</ele>
</trkpt>
<trkpt lat="36.563666" lon="-4.859680">
<time>2012-01-25T09:45:36Z</time>
<ele>387.000000</ele>
</trkpt>
<trkpt lat="36.563666" lon="-4.859680">
<time>2012-01-25T09:46:16Z</time>
<ele>387.000000</ele>
</trkpt>
<trkpt lat="36.563666" lon="-4.859680">
<time>2012-01-25T09:46:56Z</time>
<ele>387.000000</ele>
</trkpt>
<trkpt lat="36.563666" lon="-4.859680">
<time>2012-01-25T09:47:36Z</time>
<ele>387.000000</ele>
</trkpt>
<trkpt lat="36.563666" lon="-4.859680">
<time>2012-01-25T09:48:16Z</time>
<ele>387.000000</ele>
</trkpt>
<trkpt lat="36.563666" lon="-4.859680">
<time>2012-01-25T09:48:56Z</time>
<ele>387.000000</ele>
</trkpt>
<trkpt lat="36.563666" lon="-4.859680">
<time>2012-01-25T09:49:35Z</time>
<ele>387.000000</ele>
</trkpt>
<trkpt lat="36.563666" lon="-4.859680">
<time>2012-01-25T09:50:15Z</time>
<ele>387.000000</ele>
</trkpt>
<trkpt lat="36.563666" lon="-4.859680">
<time>2012-01-25T09:50:55Z</time>
<ele>387.000000</ele>
</trkpt>
<trkpt lat="36.563666" lon="-4.859680">
<time>2012-01-25T09:51:35Z</time>
<ele>387.000000</ele>
</trkpt>
<trkpt lat="36.563666" lon="-4.859680">
<time>2012-01-25T09:52:15Z</time>
<ele>387.000000</ele>
</trkpt>
<trkpt lat="36.563666" lon="-4.859680">
<time>2012-01-25T09:52:55Z</time>
<ele>387.000000</ele>
</trkpt>
<trkpt lat="36.563666" lon="-4.859680">
<time>2012-01-25T09:53:35Z</time>
<ele>387.000000</ele>
</trkpt>
<trkpt lat="36.563666" lon="-4.859680">
<time>2012-01-25T09:54:15Z</time>
<ele>387.000000</ele>
</trkpt>
<trkpt lat="36.563666" lon="-4.859680">
<time>2012-01-25T09:54:55Z</time>
<ele>387.000000</ele>
</trkpt>
<trkpt lat="36.563666" lon="-4.859680">
<time>2012-01-25T09:55:35Z</time>
<ele>387.000000</ele>
</trkpt>
<trkpt lat="36.563666" lon="-4.859680">
<time>2012-01-25T09:56:15Z</time>
<ele>387.000000</ele>
</trkpt>
<trkpt lat="36.563666" lon="-4.859680">
<time>2012-01-25T09:56:55Z</time>
<ele>387.000000</ele>
</trkpt>
<trkpt lat="36.563666" lon="-4.859680">
<time>2012-01-25T09:57:35Z</time>
<ele>387.000000</ele>
</trkpt>
<trkpt lat="36.563666" lon="-4.859680">
<time>2012-01-25T09:58:15Z</time>
<ele>387.000000</ele>
</trkpt>
<trkpt lat="36.563666" lon="-4.859680">
<time>2012-01-25T09:58:55Z</time>
<ele>387.000000</ele>
</trkpt>
<trkpt lat="36.563666" lon="-4.859680">
<time>2012-01-25T09:59:35Z</time>
<ele>387.000000</ele>
</trkpt>
<trkpt lat="36.563666" lon="-4.859680">
<time>2012-01-25T10:00:15Z</time>
<ele>387.000000</ele>
</trkpt>
<trkpt lat="36.563666" lon="-4.859680">
<time>2012-01-25T10:00:55Z</time>
<ele>387.000000</ele>
</trkpt>
<trkpt lat="36.563666" lon="-4.859680">
<time>2012-01-25T10:01:35Z</time>
<ele>387.000000</ele>
</trkpt>
<trkpt lat="36.563666" lon="-4.859680">
<time>2012-01-25T10:02:15Z</time>
<ele>387.000000</ele>
</trkpt>
<trkpt lat="36.563666" lon="-4.859680">
<time>2012-01-25T10:02:55Z</time>
<ele>387.000000</ele>
</trkpt>
<trkpt lat="36.563666" lon="-4.859680">
<time>2012-01-25T10:03:35Z</time>
<ele>387.000000</ele>
</trkpt>
<trkpt lat="36.563666" lon="-4.859680">
<time>2012-01-25T10:04:15Z</time>
<ele>387.000000</ele>
</trkpt>
<trkpt lat="36.563666" lon="-4.859680">
<time>2012-01-25T10:04:55Z</time>
<ele>387.000000</ele>
</trkpt>
<trkpt lat="36.563666" lon="-4.859680">
<time>2012-01-25T10:05:35Z</time>
<ele>387.000000</ele>
</trkpt>
<trkpt lat="36.563666" lon="-4.859680">
<time>2012-01-25T10:06:15Z</time>
<ele>387.000000</ele>
</trkpt>
<trkpt lat="36.563666" lon="-4.859680">
<time>2012-01-25T10:06:55Z</time>
<ele>387.000000</ele>
</trkpt>
<trkpt lat="36.563666" lon="-4.859680">
<time>2012-01-25T10:07:35Z</time>
<ele>387.000000</ele>
</trkpt>
<trkpt lat="36.563666" lon="-4.859680">
<time>2012-01-25T10:08:15Z</time>
<ele>387.000000</ele>
</trkpt>
<trkpt lat="36.563666" lon="-4.859680">
<time>2012-01-25T10:08:55Z</time>
<ele>387.000000</ele>
</trkpt>
<trkpt lat="36.563666" lon="-4.859680">
<time>2012-01-25T10:09:35Z</time>
<ele>387.000000</ele>
</trkpt>
<trkpt lat="36.563666" lon="-4.859680">
<time>2012-01-25T10:10:15Z</time>
<ele>387.000000</ele>
</trkpt>
<trkpt lat="36.563666" lon="-4.859680">
<time>2012-01-25T10:10:55Z</time>
<ele>387.000000</ele>
</trkpt>
<trkpt lat="36.563666" lon="-4.859680">
<time>2012-01-25T10:11:35Z</time>
<ele>387.000000</ele>
</trkpt>
<trkpt lat="36.563666" lon="-4.859680">
<time>2012-01-25T10:12:15Z</time>
<ele>387.000000</ele>
</trkpt>
<trkpt lat="36.563666" lon="-4.859680">
<time>2012-01-25T10:12:55Z</time>
<ele>388.000000</ele>
</trkpt>
<trkpt lat="36.563666" lon="-4.859680">
<time>2012-01-25T10:13:35Z</time>
<ele>388.000000</ele>
</trkpt>
<trkpt lat="36.563666" lon="-4.859680">
<time>2012-01-25T10:14:15Z</time>
<ele>388.000000</ele>
</trkpt>
<trkpt lat="36.563666" lon="-4.859680">
<time>2012-01-25T10:14:55Z</time>
<ele>388.000000</ele>
</trkpt>
<trkpt lat="36.563666" lon="-4.859680">
<time>2012-01-25T10:15:35Z</time>
<ele>388.000000</ele>
</trkpt>
<trkpt lat="36.563666" lon="-4.859680">
<time>2012-01-25T10:16:15Z</time>
<ele>388.000000</ele>
</trkpt>
<trkpt lat="36.563666" lon="-4.859680">
<time>2012-01-25T10:16:55Z</time>
<ele>388.000000</ele>
</trkpt>
<trkpt lat="36.563666" lon="-4.859680">
<time>2012-01-25T10:17:35Z</time>
<ele>388.000000</ele>
</trkpt>
<trkpt lat="36.563666" lon="-4.859680">
<time>2012-01-25T10:18:15Z</time>
<ele>388.000000</ele>
</trkpt>
<trkpt lat="36.563666" lon="-4.859680">
<time>2012-01-25T10:18:55Z</time>
<ele>388.000000</ele>
</trkpt>
<trkpt lat="36.563666" lon="-4.859680">
<time>2012-01-25T10:19:35Z</time>
<ele>388.000000</ele>
</trkpt>
<trkpt lat="36.563666" lon="-4.859680">
<time>2012-01-25T10:20:15Z</time>
<ele>388.000000</ele>
</trkpt>
<trkpt lat="36.563666" lon="-4.859680">
<time>2012-01-25T10:20:54Z</time>
<ele>388.000000</ele>
</trkpt>
<trkpt lat="36.563666" lon="-4.859680">
<time>2012-01-25T10:21:34Z</time>
<ele>388.000000</ele>
</trkpt>
<trkpt lat="36.563666" lon="-4.859680">
<time>2012-01-25T10:22:14Z</time>
<ele>388.000000</ele>
</trkpt>
<trkpt lat="36.563666" lon="-4.859680">
<time>2012-01-25T10:22:54Z</time>
<ele>388.000000</ele>
</trkpt>
<trkpt lat="36.563666" lon="-4.859680">
<time>2012-01-25T10:23:34Z</time>
<ele>388.000000</ele>
</trkpt>
<trkpt lat="36.563666" lon="-4.859680">
<time>2012-01-25T10:24:14Z</time>
<ele>388.000000</ele>
</trkpt>
<trkpt lat="36.563666" lon="-4.859680">
<time>2012-01-25T10:24:54Z</time>
<ele>388.000000</ele>
</trkpt>
<trkpt lat="36.563666" lon="-4.859680">
<time>2012-01-25T10:25:34Z</time>
<ele>388.000000</ele>
</trkpt>
<trkpt lat="36.563666" lon="-4.859680">
<time>2012-01-25T10:26:14Z</time>
<ele>388.000000</ele>
</trkpt>
<trkpt lat="36.563666" lon="-4.859680">
<time>2012-01-25T10:26:54Z</time>
<ele>388.000000</ele>
</trkpt>
<trkpt lat="36.563666" lon="-4.859680">
<time>2012-01-25T10:27:34Z</time>
<ele>388.000000</ele>
</trkpt>
<trkpt lat="36.563666" lon="-4.859680">
<time>2012-01-25T10:28:14Z</time>
<ele>388.000000</ele>
</trkpt>
<trkpt lat="36.563666" lon="-4.859680">
<time>2012-01-25T10:28:54Z</time>
<ele>388.000000</ele>
</trkpt>
<trkpt lat="36.563666" lon="-4.859680">
<time>2012-01-25T10:29:34Z</time>
<ele>388.000000</ele>
</trkpt>
<trkpt lat="36.563666" lon="-4.859680">
<time>2012-01-25T10:30:14Z</time>
<ele>388.000000</ele>
</trkpt>
<trkpt lat="36.563666" lon="-4.859680">
<time>2012-01-25T10:30:54Z</time>
<ele>388.000000</ele>
</trkpt>
<trkpt lat="36.563666" lon="-4.859680">
<time>2012-01-25T10:31:34Z</time>
<ele>388.000000</ele>
</trkpt>
<trkpt lat="36.563666" lon="-4.859680">
<time>2012-01-25T10:32:14Z</time>
<ele>388.000000</ele>
</trkpt>
<trkpt lat="36.563666" lon="-4.859680">
<time>2012-01-25T10:32:54Z</time>
<ele>388.000000</ele>
</trkpt>
<trkpt lat="36.563666" lon="-4.859680">
<time>2012-01-25T10:33:34Z</time>
<ele>388.000000</ele>
</trkpt>
<trkpt lat="36.563666" lon="-4.859680">
<time>2012-01-25T10:34:14Z</time>
<ele>388.000000</ele>
</trkpt>
<trkpt lat="36.563666" lon="-4.859680">
<time>2012-01-25T10:34:54Z</time>
<ele>388.000000</ele>
</trkpt>
<trkpt lat="36.563666" lon="-4.859680">
<time>2012-01-25T10:35:34Z</time>
<ele>388.000000</ele>
</trkpt>
<trkpt lat="36.563666" lon="-4.859680">
<time>2012-01-25T10:36:14Z</time>
<ele>388.000000</ele>
</trkpt>
<trkpt lat="36.563666" lon="-4.859680">
<time>2012-01-25T10:36:54Z</time>
<ele>388.000000</ele>
</trkpt>
<trkpt lat="36.563666" lon="-4.859680">
<time>2012-01-25T10:37:34Z</time>
<ele>388.000000</ele>
</trkpt>
<trkpt lat="36.563666" lon="-4.859680">
<time>2012-01-25T10:38:14Z</time>
<ele>388.000000</ele>
</trkpt>
<trkpt lat="36.563666" lon="-4.859680">
<time>2012-01-25T10:38:51Z</time>
<ele>388.000000</ele>
</trkpt>
<trkpt lat="36.563666" lon="-4.859680">
<time>2012-01-25T10:39:31Z</time>
<ele>388.000000</ele>
</trkpt>
<trkpt lat="36.563666" lon="-4.859680">
<time>2012-01-25T10:40:11Z</time>
<ele>388.000000</ele>
</trkpt>
<trkpt lat="36.563666" lon="-4.859680">
<time>2012-01-25T10:40:51Z</time>
<ele>388.000000</ele>
</trkpt>
<trkpt lat="36.563666" lon="-4.859680">
<time>2012-01-25T10:41:31Z</time>
<ele>388.000000</ele>
</trkpt>
<trkpt lat="36.563666" lon="-4.859680">
<time>2012-01-25T10:42:11Z</time>
<ele>388.000000</ele>
</trkpt>
<trkpt lat="36.563666" lon="-4.859680">
<time>2012-01-25T10:42:51Z</time>
<ele>388.000000</ele>
</trkpt>
<trkpt lat="36.563666" lon="-4.859680">
<time>2012-01-25T10:43:31Z</time>
<ele>388.000000</ele>
</trkpt>
<trkpt lat="36.563666" lon="-4.859680">
<time>2012-01-25T10:44:11Z</time>
<ele>388.000000</ele>
</trkpt>
<trkpt lat="36.563666" lon="-4.859680">
<time>2012-01-25T10:44:51Z</time>
<ele>388.000000</ele>
</trkpt>
<trkpt lat="36.563666" lon="-4.859680">
<time>2012-01-25T10:45:31Z</time>
<ele>388.000000</ele>
</trkpt>
<trkpt lat="36.563666" lon="-4.859680">
<time>2012-01-25T10:46:11Z</time>
<ele>388.000000</ele>
</trkpt>
<trkpt lat="36.563666" lon="-4.859680">
<time>2012-01-25T10:46:51Z</time>
<ele>388.000000</ele>
</trkpt>
<trkpt lat="36.563666" lon="-4.859680">
<time>2012-01-25T10:47:31Z</time>
<ele>388.000000</ele>
</trkpt>
<trkpt lat="36.563666" lon="-4.859680">
<time>2012-01-25T10:48:11Z</time>
<ele>388.000000</ele>
</trkpt>
<trkpt lat="36.563666" lon="-4.859680">
<time>2012-01-25T10:48:51Z</time>
<ele>388.000000</ele>
</trkpt>
<trkpt lat="36.563666" lon="-4.859680">
<time>2012-01-25T10:49:27Z</time>
<ele>388.000000</ele>
</trkpt>
<trkpt lat="36.563648" lon="-4.859707">
<time>2012-01-25T10:50:06Z</time>
<ele>388.000000</ele>
</trkpt>
<trkpt lat="36.563749" lon="-4.859689">
<time>2012-01-25T10:50:40Z</time>
<ele>373.000000</ele>
</trkpt>
<trkpt lat="36.564317" lon="-4.860738">
<time>2012-01-25T10:51:20Z</time>
<ele>329.000000</ele>
</trkpt>
<trkpt lat="36.563873" lon="-4.859846">
<time>2012-01-25T10:52:00Z</time>
<ele>348.000000</ele>
</trkpt>
<trkpt lat="36.563723" lon="-4.859878">
<time>2012-01-25T10:52:40Z</time>
<ele>374.000000</ele>
</trkpt>
<trkpt lat="36.563605" lon="-4.859819">
<time>2012-01-25T10:53:20Z</time>
<ele>374.000000</ele>
</trkpt>
<trkpt lat="36.563637" lon="-4.859814">
<time>2012-01-25T10:54:00Z</time>
<ele>384.000000</ele>
</trkpt>
<trkpt lat="36.563594" lon="-4.859766">
<time>2012-01-25T10:54:40Z</time>
<ele>388.000000</ele>
</trkpt>
<trkpt lat="36.563643" lon="-4.859836">
<time>2012-01-25T10:55:20Z</time>
<ele>391.000000</ele>
</trkpt>
<trkpt lat="36.563653" lon="-4.859878">
<time>2012-01-25T10:56:00Z</time>
<ele>388.000000</ele>
</trkpt>
<trkpt lat="36.563643" lon="-4.859793">
<time>2012-01-25T10:56:40Z</time>
<ele>389.000000</ele>
</trkpt>
<trkpt lat="36.563680" lon="-4.859814">
<time>2012-01-25T10:57:20Z</time>
<ele>395.000000</ele>
</trkpt>
<trkpt lat="36.563600" lon="-4.859905">
<time>2012-01-25T10:58:00Z</time>
<ele>389.000000</ele>
</trkpt>
<trkpt lat="36.563664" lon="-4.859884">
<time>2012-01-25T10:58:40Z</time>
<ele>390.000000</ele>
</trkpt>
<trkpt lat="36.563702" lon="-4.860109">
<time>2012-01-25T10:59:20Z</time>
<ele>392.000000</ele>
</trkpt>
<trkpt lat="36.564407" lon="-4.861963">
<time>2012-01-25T09:59:42Z</time>
<ele>0.000000</ele>
</trkpt>
<trkpt lat="36.564407" lon="-4.861963">
<time>2012-01-25T11:00:27Z</time>
<ele>0.000000</ele>
</trkpt>
<trkpt lat="36.564407" lon="-4.861963">
<time>2012-01-25T10:00:42Z</time>
<ele>0.000000</ele>
</trkpt>
<trkpt lat="36.563647" lon="-4.859588">
<time>2012-01-25T11:01:28Z</time>
<ele>395.000000</ele>
</trkpt>
<trkpt lat="36.563694" lon="-4.859643">
<time>2012-01-25T11:01:58Z</time>
<ele>398.000000</ele>
</trkpt>
<trkpt lat="36.563959" lon="-4.859599">
<time>2012-01-25T11:02:28Z</time>
<ele>396.000000</ele>
</trkpt>
<trkpt lat="36.563787" lon="-4.859422">
<time>2012-01-25T11:03:04Z</time>
<ele>383.000000</ele>
</trkpt>
<trkpt lat="36.560698" lon="-4.858435">
<time>2012-01-25T11:03:44Z</time>
<ele>368.000000</ele>
</trkpt>
<trkpt lat="36.557409" lon="-4.858688">
<time>2012-01-25T11:04:24Z</time>
<ele>349.000000</ele>
</trkpt>
<trkpt lat="36.554362" lon="-4.860667">
<time>2012-01-25T11:05:04Z</time>
<ele>352.000000</ele>
</trkpt>
<trkpt lat="36.551439" lon="-4.860324">
<time>2012-01-25T11:05:43Z</time>
<ele>358.000000</ele>
</trkpt>
<trkpt lat="36.548257" lon="-4.861230">
<time>2012-01-25T11:06:23Z</time>
<ele>385.000000</ele>
</trkpt>
<trkpt lat="36.543671" lon="-4.863827">
<time>2012-01-25T11:07:03Z</time>
<ele>365.000000</ele>
</trkpt>
<trkpt lat="36.536633" lon="-4.866434">
<time>2012-01-25T11:07:43Z</time>
<ele>314.000000</ele>
</trkpt>
<trkpt lat="36.532754" lon="-4.873155">
<time>2012-01-25T11:08:23Z</time>
<ele>274.000000</ele>
</trkpt>
<trkpt lat="36.529139" lon="-4.879834">
<time>2012-01-25T11:09:03Z</time>
<ele>225.000000</ele>
</trkpt>
<trkpt lat="36.523082" lon="-4.881256">
<time>2012-01-25T11:09:43Z</time>
<ele>181.000000</ele>
</trkpt>
<trkpt lat="36.519445" lon="-4.880590">
<time>2012-01-25T11:10:22Z</time>
<ele>135.000000</ele>
</trkpt>
<trkpt lat="36.516371" lon="-4.879244">
<time>2012-01-25T11:11:02Z</time>
<ele>120.000000</ele>
</trkpt>
<trkpt lat="36.513855" lon="-4.879609">
<time>2012-01-25T11:11:42Z</time>
<ele>108.000000</ele>
</trkpt>
<trkpt lat="36.512815" lon="-4.879775">
<time>2012-01-25T11:12:22Z</time>
<ele>124.000000</ele>
</trkpt>
<trkpt lat="36.511243" lon="-4.879727">
<time>2012-01-25T11:13:02Z</time>
<ele>89.000000</ele>
</trkpt>
<trkpt lat="36.510996" lon="-4.877753">
<time>2012-01-25T11:13:42Z</time>
<ele>87.000000</ele>
</trkpt>
<trkpt lat="36.511125" lon="-4.875612">
<time>2012-01-25T11:14:22Z</time>
<ele>84.000000</ele>
</trkpt>
<trkpt lat="36.509494" lon="-4.873182">
<time>2012-01-25T11:15:02Z</time>
<ele>80.000000</ele>
</trkpt>
<trkpt lat="36.508979" lon="-4.872335">
<time>2012-01-25T11:15:42Z</time>
<ele>71.000000</ele>
</trkpt>
<trkpt lat="36.508947" lon="-4.871616">
<time>2012-01-25T11:16:22Z</time>
<ele>65.000000</ele>
</trkpt>
<trkpt lat="36.508942" lon="-4.871643">
<time>2012-01-25T11:17:02Z</time>
<ele>63.000000</ele>
</trkpt>
<trkpt lat="36.508942" lon="-4.871643">
<time>2012-01-25T11:17:42Z</time>
<ele>63.000000</ele>
</trkpt>
<trkpt lat="36.508942" lon="-4.871643">
<time>2012-01-25T11:18:22Z</time>
<ele>63.000000</ele>
</trkpt>
<trkpt lat="36.508942" lon="-4.871643">
<time>2012-01-25T11:19:02Z</time>
<ele>63.000000</ele>
</trkpt>
<trkpt lat="36.508942" lon="-4.871643">
<time>2012-01-25T11:19:42Z</time>
<ele>63.000000</ele>
</trkpt>
<trkpt lat="36.508942" lon="-4.871643">
<time>2012-01-25T11:20:22Z</time>
<ele>63.000000</ele>
</trkpt>
<trkpt lat="36.508942" lon="-4.871643">
<time>2012-01-25T11:21:02Z</time>
<ele>63.000000</ele>
</trkpt>
<trkpt lat="36.508942" lon="-4.871643">
<time>2012-01-25T11:21:42Z</time>
<ele>63.000000</ele>
</trkpt>
<trkpt lat="36.508942" lon="-4.871643">
<time>2012-01-25T11:22:22Z</time>
<ele>63.000000</ele>
</trkpt>
<trkpt lat="36.508942" lon="-4.871643">
<time>2012-01-25T11:23:02Z</time>
<ele>63.000000</ele>
</trkpt>
<trkpt lat="36.508942" lon="-4.871643">
<time>2012-01-25T11:23:42Z</time>
<ele>63.000000</ele>
</trkpt>
<trkpt lat="36.508942" lon="-4.871643">
<time>2012-01-25T11:24:22Z</time>
<ele>63.000000</ele>
</trkpt>
<trkpt lat="36.508942" lon="-4.871643">
<time>2012-01-25T11:25:02Z</time>
<ele>63.000000</ele>
</trkpt>
<trkpt lat="36.508942" lon="-4.871643">
<time>2012-01-25T11:25:42Z</time>
<ele>63.000000</ele>
</trkpt>
<trkpt lat="36.508942" lon="-4.871643">
<time>2012-01-25T11:26:22Z</time>
<ele>63.000000</ele>
</trkpt>
<trkpt lat="36.508942" lon="-4.871643">
<time>2012-01-25T11:27:02Z</time>
<ele>63.000000</ele>
</trkpt>
<trkpt lat="36.508942" lon="-4.871643">
<time>2012-01-25T11:27:42Z</time>
<ele>63.000000</ele>
</trkpt>
<trkpt lat="36.508942" lon="-4.871643">
<time>2012-01-25T11:28:22Z</time>
<ele>63.000000</ele>
</trkpt>
<trkpt lat="36.508942" lon="-4.871643">
<time>2012-01-25T11:29:02Z</time>
<ele>63.000000</ele>
</trkpt>
<trkpt lat="36.508942" lon="-4.871643">
<time>2012-01-25T11:29:42Z</time>
<ele>63.000000</ele>
</trkpt>
<trkpt lat="36.508942" lon="-4.871643">
<time>2012-01-25T11:30:22Z</time>
<ele>63.000000</ele>
</trkpt>
<trkpt lat="36.508942" lon="-4.871643">
<time>2012-01-25T11:31:02Z</time>
<ele>63.000000</ele>
</trkpt>
<trkpt lat="36.508942" lon="-4.871643">
<time>2012-01-25T11:31:42Z</time>
<ele>63.000000</ele>
</trkpt>
<trkpt lat="36.508942" lon="-4.871643">
<time>2012-01-25T11:32:22Z</time>
<ele>63.000000</ele>
</trkpt>
<trkpt lat="36.508942" lon="-4.871643">
<time>2012-01-25T11:33:02Z</time>
<ele>63.000000</ele>
</trkpt>
<trkpt lat="36.508942" lon="-4.871643">
<time>2012-01-25T11:33:42Z</time>
<ele>63.000000</ele>
</trkpt>
<trkpt lat="36.508942" lon="-4.871643">
<time>2012-01-25T11:34:22Z</time>
<ele>63.000000</ele>
</trkpt>
<trkpt lat="36.508942" lon="-4.871643">
<time>2012-01-25T11:35:02Z</time>
<ele>63.000000</ele>
</trkpt>
<trkpt lat="36.508947" lon="-4.871643">
<time>2012-01-25T11:35:42Z</time>
<ele>63.000000</ele>
</trkpt>
<trkpt lat="36.508942" lon="-4.871643">
<time>2012-01-25T11:36:22Z</time>
<ele>63.000000</ele>
</trkpt>
<trkpt lat="36.508947" lon="-4.871643">
<time>2012-01-25T11:37:02Z</time>
<ele>63.000000</ele>
</trkpt>
<trkpt lat="36.508947" lon="-4.871643">
<time>2012-01-25T11:37:42Z</time>
<ele>63.000000</ele>
</trkpt>
<trkpt lat="36.508942" lon="-4.871643">
<time>2012-01-25T11:38:22Z</time>
<ele>63.000000</ele>
</trkpt>
<trkpt lat="36.508942" lon="-4.871643">
<time>2012-01-25T11:39:02Z</time>
<ele>63.000000</ele>
</trkpt>
<trkpt lat="36.508920" lon="-4.871643">
<time>2012-01-25T11:39:42Z</time>
<ele>60.000000</ele>
</trkpt>
<trkpt lat="36.508931" lon="-4.869588">
<time>2012-01-25T11:40:22Z</time>
<ele>59.000000</ele>
</trkpt>
<trkpt lat="36.509011" lon="-4.868488">
<time>2012-01-25T11:41:02Z</time>
<ele>64.000000</ele>
</trkpt>
<trkpt lat="36.509135" lon="-4.869282">
<time>2012-01-25T11:41:42Z</time>
<ele>69.000000</ele>
</trkpt>
<trkpt lat="36.509151" lon="-4.871964">
<time>2012-01-25T11:42:10Z</time>
<ele>65.000000</ele>
</trkpt>
</trkseg>
</trk>
</gpx>
